createdAt,value
2023-01-31T00:01:40.793Z,81.96
2023-01-31T00:04:13.547Z,80.62
2023-01-31T00:06:42.842Z,81.33
2023-01-31T00:09:12.195Z,81.15
2023-01-31T00:11:39.507Z,81.34
2023-01-31T00:14:07.502Z,81.63
2023-01-31T00:16:34.945Z,82.18
2023-01-31T00:19:03.570Z,81.76
2023-01-31T00:21:31.320Z,82.16
2023-01-31T00:23:58.609Z,82.56
2023-01-31T00:26:29.256Z,82.72
2023-01-31T00:28:57.936Z,83.22
2023-01-31T00:31:27.447Z,82.21
2023-01-31T00:33:55.700Z,82.53
2023-01-31T00:36:25.066Z,82.80
2023-01-31T00:38:54.556Z,82.42
2023-01-31T00:41:22.983Z,81.42
2023-01-31T00:43:51.065Z,81.03
2023-01-31T00:46:19.780Z,81.43
2023-01-31T00:48:47.347Z,81.58
2023-01-31T00:51:14.939Z,82.38
2023-01-31T00:53:41.903Z,82.49
2023-01-31T00:56:15.412Z,82.22
2023-01-31T00:58:42.930Z,82.20
2023-01-31T01:01:16.095Z,82.72
2023-01-31T01:03:44.931Z,82.73
2023-01-31T01:06:12.565Z,82.80
2023-01-31T01:08:42.938Z,82.00
2023-01-31T01:11:12.919Z,81.61
2023-01-31T01:13:40.800Z,81.99
2023-01-31T01:16:17.685Z,81.90
2023-01-31T01:18:48.669Z,82.22
2023-01-31T01:21:24.044Z,81.99
2023-01-31T01:23:52.216Z,82.52
2023-01-31T01:26:22.761Z,82.69
2023-01-31T01:28:50.782Z,82.56
2023-01-31T01:31:19.409Z,83.10
2023-01-31T01:33:48.185Z,82.40
2023-01-31T01:36:17.591Z,81.27
2023-01-31T01:38:45.402Z,81.27
2023-01-31T01:41:13.779Z,81.38
2023-01-31T01:43:48.278Z,81.22
2023-01-31T01:46:24.847Z,81.47
2023-01-31T01:49:11.548Z,81.39
2023-01-31T01:51:40.040Z,82.19
2023-01-31T01:54:12.852Z,82.31
2023-01-31T01:56:43.410Z,82.69
2023-01-31T01:59:18.799Z,82.68
2023-01-31T02:01:47.337Z,81.97
2023-01-31T02:04:19.021Z,82.89
2023-01-31T02:06:46.803Z,83.18
2023-01-31T02:09:25.225Z,83.40
2023-01-31T02:11:53.982Z,83.02
2023-01-31T02:14:21.262Z,82.69
2023-01-31T02:16:48.784Z,82.71
2023-01-31T02:19:46.536Z,83.00
2023-01-31T02:22:28.550Z,83.00
2023-01-31T02:25:22.033Z,83.06
2023-01-31T02:28:26.651Z,83.00
2023-01-31T02:31:08.893Z,83.10
2023-01-31T02:33:52.364Z,82.90
2023-01-31T02:37:01.320Z,83.40
2023-01-31T02:39:43.553Z,82.82
2023-01-31T02:42:38.444Z,82.10
2023-01-31T02:45:05.464Z,81.71
2023-01-31T02:48:00.260Z,81.75
2023-01-31T02:50:36.791Z,81.91
2023-01-31T02:53:10.668Z,81.46
2023-01-31T02:56:07.655Z,81.86
2023-01-31T02:58:39.097Z,82.07
2023-01-31T03:01:09.596Z,81.48
2023-01-31T03:03:38.144Z,81.76
2023-01-31T03:06:31.032Z,81.92
2023-01-31T03:08:58.047Z,81.87
2023-01-31T03:12:05.848Z,81.97
2023-01-31T03:14:33.124Z,82.15
2023-01-31T03:17:33.786Z,81.70
2023-01-31T03:20:07.634Z,81.84
2023-01-31T03:22:43.335Z,82.36
2023-01-31T03:25:13.141Z,82.39
2023-01-31T03:27:45.692Z,82.65
2023-01-31T03:30:23.468Z,82.88
2023-01-31T03:32:58.603Z,82.85
2023-01-31T03:35:29.103Z,82.61
2023-01-31T03:38:05.587Z,82.78
2023-01-31T03:40:46.337Z,82.76
2023-01-31T03:43:26.877Z,83.04
2023-01-31T03:46:01.344Z,83.29
2023-01-31T03:48:33.146Z,83.94
2023-01-31T03:51:05.888Z,83.99
2023-01-31T03:53:47.378Z,84.01
2023-01-31T03:56:20.670Z,84.00
2023-01-31T03:58:53.874Z,83.84
2023-01-31T04:01:25.340Z,83.85
2023-01-31T04:04:03.797Z,84.07
2023-01-31T04:06:30.907Z,84.03
2023-01-31T04:08:58.414Z,84.08
2023-01-31T04:11:27.206Z,83.90
2023-01-31T04:13:54.337Z,83.91
2023-01-31T04:16:22.865Z,84.18
2023-01-31T04:18:51.220Z,84.37
2023-01-31T04:21:18.164Z,84.17
2023-01-31T04:23:45.083Z,84.35
2023-01-31T04:26:12.467Z,84.25
2023-01-31T04:28:40.065Z,84.12
2023-01-31T04:31:07.351Z,84.17
2023-01-31T04:33:34.428Z,83.82
2023-01-31T04:36:01.511Z,84.20
2023-01-31T04:38:28.568Z,84.44
2023-01-31T04:40:55.570Z,84.48
2023-01-31T04:43:22.495Z,84.43
2023-01-31T04:45:49.468Z,84.34
2023-01-31T04:48:16.510Z,84.76
2023-01-31T04:50:43.572Z,84.97
2023-01-31T04:53:10.565Z,84.93
2023-01-31T04:55:37.575Z,85.44
2023-01-31T04:58:06.706Z,85.23
2023-01-31T05:00:34.284Z,85.10
2023-01-31T05:03:01.636Z,85.42
2023-01-31T05:05:28.615Z,85.62
2023-01-31T05:07:55.572Z,85.43
2023-01-31T05:10:22.499Z,85.42
2023-01-31T05:12:49.470Z,85.56
2023-01-31T05:15:16.965Z,85.49
2023-01-31T05:17:44.508Z,85.77
2023-01-31T05:20:11.570Z,85.67
2023-01-31T05:22:38.557Z,85.84
2023-01-31T05:25:05.984Z,85.94
2023-01-31T05:27:33.616Z,86.07
2023-01-31T05:30:00.850Z,85.98
2023-01-31T05:32:27.911Z,86.10
2023-01-31T05:34:54.905Z,86.11
2023-01-31T05:37:21.838Z,86.32
2023-01-31T05:39:48.718Z,86.00
2023-01-31T05:42:15.705Z,86.15
2023-01-31T05:44:42.662Z,86.16
2023-01-31T05:47:09.617Z,86.30
2023-01-31T05:49:36.886Z,86.48
2023-01-31T05:52:03.863Z,86.19
2023-01-31T05:54:31.375Z,86.10
2023-01-31T05:56:58.296Z,85.88
2023-01-31T05:59:25.917Z,86.07
2023-01-31T06:01:53.815Z,85.97
2023-01-31T06:04:20.842Z,85.88
2023-01-31T06:06:47.802Z,85.86
2023-01-31T06:09:14.919Z,85.91
2023-01-31T06:11:41.968Z,86.01
2023-01-31T06:14:09.131Z,86.18
2023-01-31T06:16:36.181Z,86.33
2023-01-31T06:19:03.279Z,86.04
2023-01-31T06:21:30.722Z,86.01
2023-01-31T06:23:57.678Z,86.04
2023-01-31T06:26:24.746Z,86.02
2023-01-31T06:28:52.018Z,85.77
2023-01-31T06:31:19.122Z,85.84
2023-01-31T06:33:47.972Z,85.72
2023-01-31T06:36:18.863Z,85.69
2023-01-31T06:38:51.288Z,85.49
2023-01-31T06:41:19.649Z,85.51
2023-01-31T06:43:46.554Z,85.14
2023-01-31T06:46:13.612Z,85.13
2023-01-31T06:48:40.610Z,85.06
2023-01-31T06:51:07.704Z,85.02
2023-01-31T06:53:35.043Z,84.97
2023-01-31T06:56:02.018Z,84.85
2023-01-31T06:58:29.074Z,84.55
2023-01-31T07:00:56.050Z,84.29
2023-01-31T07:03:22.983Z,84.34
2023-01-31T07:05:50.019Z,84.01
2023-01-31T07:08:17.136Z,83.69
2023-01-31T07:10:44.015Z,83.55
2023-01-31T07:13:11.132Z,83.34
2023-01-31T07:15:38.070Z,83.72
2023-01-31T07:18:05.733Z,83.93
2023-01-31T07:20:32.936Z,83.67
2023-01-31T07:23:00.254Z,83.61
2023-01-31T07:25:27.724Z,83.38
2023-01-31T07:27:54.629Z,82.79
2023-01-31T07:30:21.576Z,82.65
2023-01-31T07:32:48.513Z,82.63
2023-01-31T07:35:15.957Z,82.42
2023-01-31T07:37:43.136Z,82.47
2023-01-31T07:40:11.299Z,82.27
2023-01-31T07:42:39.044Z,81.99
2023-01-31T07:45:33.569Z,81.99
2023-01-31T07:47:58.391Z,81.60
2023-01-31T07:50:29.603Z,81.24
2023-01-31T07:52:58.445Z,81.76
2023-01-31T07:55:26.110Z,81.82
2023-01-31T07:57:53.069Z,81.19
2023-01-31T08:00:39.431Z,81.37
2023-01-31T08:03:31.982Z,80.41
2023-01-31T08:06:10.659Z,81.06
2023-01-31T08:08:38.569Z,80.27
2023-01-31T08:11:05.712Z,80.74
2023-01-31T08:13:37.136Z,79.80
2023-01-31T08:16:06.350Z,80.36
2023-01-31T08:18:33.642Z,80.16
2023-01-31T08:21:00.745Z,79.26
2023-01-31T08:23:28.355Z,79.97
2023-01-31T08:26:16.226Z,78.99
2023-01-31T08:28:44.312Z,78.63
2023-01-31T08:31:17.724Z,78.42
2023-01-31T08:33:45.020Z,78.16
2023-01-31T08:36:18.135Z,78.68
2023-01-31T08:38:45.490Z,78.33
2023-01-31T08:41:13.097Z,77.85
2023-01-31T08:43:54.351Z,78.33
2023-01-31T08:46:29.627Z,78.02
2023-01-31T08:48:56.617Z,76.94
2023-01-31T08:51:23.667Z,77.94
2023-01-31T08:53:51.116Z,77.09
2023-01-31T08:56:20.701Z,77.09
2023-01-31T08:58:47.714Z,76.63
2023-01-31T09:01:18.128Z,75.94
2023-01-31T09:03:46.512Z,76.31
2023-01-31T09:06:21.233Z,75.31
2023-01-31T09:08:48.527Z,75.27
2023-01-31T09:11:18.360Z,75.65
2023-01-31T09:13:49.058Z,75.21
2023-01-31T09:16:16.183Z,75.08
2023-01-31T09:18:43.350Z,75.33
2023-01-31T09:21:16.409Z,74.28
2023-01-31T09:23:45.718Z,73.89
2023-01-31T09:26:14.729Z,74.19
2023-01-31T09:28:42.831Z,73.35
2023-01-31T09:31:13.698Z,73.55
2023-01-31T09:33:41.143Z,73.57
2023-01-31T09:36:14.061Z,73.96
2023-01-31T09:38:41.579Z,74.05
2023-01-31T09:41:38.152Z,74.14
2023-01-31T09:44:21.309Z,74.38
2023-01-31T09:46:58.958Z,74.58
2023-01-31T09:49:30.860Z,74.70
2023-01-31T09:52:00.644Z,74.89
2023-01-31T09:54:36.394Z,75.04
2023-01-31T09:57:45.490Z,74.92
2023-01-31T10:00:33.139Z,73.81
2023-01-31T10:03:26.444Z,74.20
2023-01-31T10:06:02.138Z,73.73
2023-01-31T10:08:53.365Z,72.72
2023-01-31T10:11:39.059Z,72.74
2023-01-31T10:14:19.344Z,72.75
2023-01-31T10:17:01.530Z,72.42
2023-01-31T10:19:36.272Z,71.25
2023-01-31T10:22:12.916Z,71.09
2023-01-31T10:24:46.826Z,71.03
2023-01-31T10:27:27.820Z,71.39
2023-01-31T10:29:57.769Z,71.74
2023-01-31T10:32:31.523Z,71.63
2023-01-31T10:35:35.620Z,71.30
2023-01-31T10:38:17.148Z,69.59
2023-01-31T10:40:48.369Z,68.96
2023-01-31T10:43:35.546Z,68.74
2023-01-31T10:46:08.077Z,69.26
2023-01-31T10:48:35.078Z,69.41
2023-01-31T10:51:33.905Z,68.46
2023-01-31T10:54:22.221Z,69.04
2023-01-31T10:56:49.295Z,69.63
2023-01-31T10:59:24.632Z,69.07
2023-01-31T11:01:51.815Z,69.47
2023-01-31T11:04:27.603Z,70.21
2023-01-31T11:06:56.641Z,70.57
2023-01-31T11:09:24.251Z,70.30
2023-01-31T11:12:00.172Z,69.53
2023-01-31T11:14:29.977Z,69.64
2023-01-31T11:17:04.589Z,69.36
2023-01-31T11:19:40.365Z,69.40
2023-01-31T11:22:18.231Z,69.37
2023-01-31T11:24:48.775Z,68.99
2023-01-31T11:27:40.207Z,69.59
2023-01-31T11:30:25.076Z,70.67
2023-01-31T11:32:52.285Z,69.11
2023-01-31T11:35:19.288Z,69.18
2023-01-31T11:38:17.008Z,68.71
2023-01-31T11:40:44.052Z,68.32
2023-01-31T11:43:14.222Z,69.13
2023-01-31T11:45:46.527Z,68.87
2023-01-31T11:48:18.301Z,69.23
2023-01-31T11:50:57.943Z,69.49
2023-01-31T11:53:31.196Z,68.66
2023-01-31T11:56:11.004Z,69.37
2023-01-31T11:58:40.219Z,69.77
2023-01-31T12:01:12.146Z,69.77
2023-01-31T12:04:01.428Z,70.04
2023-01-31T12:06:33.864Z,69.38
2023-01-31T12:09:01.667Z,69.44
2023-01-31T12:11:34.463Z,69.11
2023-01-31T12:14:12.664Z,69.56
2023-01-31T12:16:40.223Z,69.89
2023-01-31T12:19:13.538Z,69.90
2023-01-31T12:22:09.478Z,69.59
2023-01-31T12:24:45.258Z,70.04
2023-01-31T12:27:41.147Z,70.49
2023-01-31T12:30:17.150Z,69.67
2023-01-31T12:33:05.420Z,69.49
2023-01-31T12:36:00.951Z,68.97
2023-01-31T12:38:42.744Z,68.78
2023-01-31T12:41:36.405Z,68.63
2023-01-31T12:44:12.072Z,68.47
2023-01-31T12:47:16.294Z,68.27
2023-01-31T12:50:03.273Z,68.65
2023-01-31T12:52:30.231Z,68.39
2023-01-31T12:55:29.469Z,68.04
2023-01-31T12:58:12.914Z,68.28
2023-01-31T13:01:01.737Z,68.23
2023-01-31T13:03:59.518Z,68.39
2023-01-31T13:06:56.392Z,68.56
2023-01-31T13:09:35.079Z,67.69
2023-01-31T13:12:08.088Z,66.09
2023-01-31T13:14:41.971Z,66.01
2023-01-31T13:17:13.367Z,66.01
2023-01-31T13:19:50.595Z,66.39
2023-01-31T13:22:28.019Z,65.95
2023-01-31T13:25:18.190Z,64.72
2023-01-31T13:27:58.001Z,65.21
2023-01-31T13:30:37.762Z,64.92
2023-01-31T13:33:18.245Z,65.38
2023-01-31T13:35:49.417Z,65.86
2023-01-31T13:38:20.043Z,65.63
2023-01-31T13:40:52.302Z,65.12
2023-01-31T13:43:19.943Z,65.22
2023-01-31T13:45:52.910Z,65.52
2023-01-31T13:48:28.965Z,64.74
2023-01-31T13:51:02.824Z,65.17
2023-01-31T13:53:33.624Z,65.01
2023-01-31T13:56:03.059Z,65.12
2023-01-31T13:58:35.121Z,65.06
2023-01-31T14:01:12.829Z,64.67
2023-01-31T14:04:11.696Z,64.84
2023-01-31T14:06:57.911Z,64.87
2023-01-31T14:09:30.363Z,65.21
2023-01-31T14:12:21.565Z,65.33
2023-01-31T14:14:55.548Z,65.27
2023-01-31T14:17:33.305Z,65.43
2023-01-31T14:20:25.751Z,65.10
2023-01-31T14:23:27.728Z,65.14
2023-01-31T14:25:54.736Z,65.52
2023-01-31T14:28:23.705Z,65.80
2023-01-31T14:30:53.643Z,66.02
2023-01-31T14:33:24.722Z,65.75
2023-01-31T14:35:57.366Z,65.44
2023-01-31T14:39:01.186Z,65.56
2023-01-31T14:41:51.783Z,65.45
2023-01-31T14:44:31.116Z,65.52
2023-01-31T14:47:08.332Z,65.92
2023-01-31T14:49:53.564Z,65.96
2023-01-31T14:52:23.188Z,66.12
2023-01-31T14:54:53.094Z,66.08
2023-01-31T14:57:30.558Z,66.18
2023-01-31T15:00:03.146Z,66.28
2023-01-31T15:02:33.260Z,66.29
2023-01-31T15:05:20.400Z,65.33
2023-01-31T15:07:58.966Z,64.64
2023-01-31T15:11:04.784Z,64.43
2023-01-31T15:13:33.485Z,65.84
2023-01-31T15:16:20.675Z,66.16
2023-01-31T15:19:12.510Z,65.75
2023-01-31T15:21:44.567Z,65.97
2023-01-31T15:24:19.179Z,65.45
2023-01-31T15:26:48.021Z,65.92
2023-01-31T15:29:23.046Z,65.90
2023-01-31T15:31:54.936Z,65.74
2023-01-31T15:34:36.172Z,65.17
2023-01-31T15:37:22.273Z,65.50
2023-01-31T15:40:04.107Z,65.24
2023-01-31T15:42:33.174Z,65.59
2023-01-31T15:45:13.464Z,65.38
2023-01-31T15:47:40.617Z,65.43
2023-01-31T15:50:19.129Z,65.71
2023-01-31T15:52:46.410Z,66.16
2023-01-31T15:55:16.047Z,65.64
2023-01-31T15:57:46.193Z,66.09
2023-01-31T16:00:31.173Z,66.41
2023-01-31T16:03:01.880Z,66.39
2023-01-31T16:05:38.797Z,66.70
2023-01-31T16:08:33.331Z,66.81
2023-01-31T16:11:04.248Z,67.00
2023-01-31T16:13:33.290Z,67.16
2023-01-31T16:16:00.637Z,67.06
2023-01-31T16:18:27.970Z,67.05
2023-01-31T16:20:57.213Z,67.32
2023-01-31T16:23:24.100Z,67.24
2023-01-31T16:26:00.684Z,67.60
2023-01-31T16:28:30.270Z,67.52
2023-01-31T16:31:12.577Z,67.66
2023-01-31T16:33:47.719Z,67.79
2023-01-31T16:36:18.207Z,67.82
2023-01-31T16:39:01.575Z,67.70
2023-01-31T16:41:40.499Z,67.79
2023-01-31T16:44:14.109Z,68.05
2023-01-31T16:46:44.975Z,68.16
2023-01-31T16:49:25.827Z,67.89
2023-01-31T16:52:08.419Z,67.89
2023-01-31T16:54:50.350Z,67.81
2023-01-31T16:57:35.673Z,67.91
2023-01-31T17:00:27.147Z,68.26
2023-01-31T17:02:56.471Z,68.38
2023-01-31T17:05:29.734Z,68.69
2023-01-31T17:07:58.604Z,68.73
2023-01-31T17:10:31.116Z,68.76
2023-01-31T17:13:03.310Z,68.79
2023-01-31T17:15:30.430Z,68.68
2023-01-31T17:17:57.447Z,68.86
2023-01-31T17:20:24.413Z,68.72
2023-01-31T17:23:02.278Z,68.52
2023-01-31T17:25:33.571Z,68.43
2023-01-31T17:28:00.593Z,68.23
2023-01-31T17:30:29.929Z,68.40
2023-01-31T17:32:58.341Z,68.64
2023-01-31T17:35:34.199Z,68.91
2023-01-31T17:38:01.336Z,69.04
2023-01-31T17:40:29.031Z,69.11
2023-01-31T17:43:04.070Z,69.36
2023-01-31T17:45:32.159Z,69.17
2023-01-31T17:47:59.632Z,69.07
2023-01-31T17:50:28.232Z,69.23
2023-01-31T17:52:55.960Z,69.29
2023-01-31T17:55:24.568Z,69.53
2023-01-31T17:57:51.906Z,69.38
2023-01-31T18:00:20.175Z,69.38
2023-01-31T18:02:47.205Z,69.36
2023-01-31T18:05:22.194Z,69.54
2023-01-31T18:07:51.614Z,69.48
2023-01-31T18:10:18.772Z,69.54
2023-01-31T18:12:45.858Z,69.97
2023-01-31T18:15:12.867Z,70.25
2023-01-31T18:17:39.993Z,70.45
2023-01-31T18:20:07.659Z,70.91
2023-01-31T18:22:35.779Z,70.78
2023-01-31T18:25:04.785Z,71.14
2023-01-31T18:27:31.841Z,71.56
2023-01-31T18:29:58.923Z,71.56
2023-01-31T18:32:25.949Z,72.00
2023-01-31T18:34:52.987Z,71.90
2023-01-31T18:37:20.170Z,72.10
2023-01-31T18:39:48.864Z,72.02
2023-01-31T18:42:16.840Z,71.78
2023-01-31T18:44:44.430Z,71.72
2023-01-31T18:47:12.133Z,71.89
2023-01-31T18:49:40.371Z,72.11
2023-01-31T18:52:16.403Z,71.89
2023-01-31T18:54:43.457Z,71.71
2023-01-31T18:57:10.474Z,71.84
2023-01-31T18:59:37.489Z,71.85
2023-01-31T19:02:04.557Z,71.78
2023-01-31T19:04:31.648Z,71.99
2023-01-31T19:06:58.647Z,72.10
2023-01-31T19:09:25.708Z,72.31
2023-01-31T19:11:52.753Z,72.11
2023-01-31T19:14:19.868Z,72.33
2023-01-31T19:16:48.689Z,72.56
2023-01-31T19:19:16.230Z,72.74
2023-01-31T19:21:43.404Z,72.63
2023-01-31T19:24:14.766Z,72.44
2023-01-31T19:26:42.504Z,72.60
2023-01-31T19:29:15.432Z,72.65
2023-01-31T19:31:43.030Z,72.45
2023-01-31T19:34:10.300Z,72.42
2023-01-31T19:36:39.569Z,72.48
2023-01-31T19:39:09.677Z,72.60
2023-01-31T19:41:36.928Z,72.80
2023-01-31T19:44:04.412Z,72.94
2023-01-31T19:46:33.709Z,73.21
2023-01-31T19:49:01.089Z,73.05
2023-01-31T19:51:28.253Z,73.03
2023-01-31T19:54:03.551Z,73.07
2023-01-31T19:56:31.122Z,73.12
2023-01-31T19:58:59.363Z,73.04
2023-01-31T20:01:26.914Z,72.98
2023-01-31T20:03:54.724Z,72.98
2023-01-31T20:06:25.132Z,73.08
2023-01-31T20:08:54.989Z,73.03
2023-01-31T20:11:23.125Z,73.15
2023-01-31T20:13:51.955Z,73.10
2023-01-31T20:16:20.108Z,73.14
2023-01-31T20:18:47.896Z,73.02
2023-01-31T20:21:19.472Z,72.93
2023-01-31T20:23:46.782Z,73.05
2023-01-31T20:26:14.877Z,73.15
2023-01-31T20:28:43.054Z,73.17
2023-01-31T20:31:12.603Z,73.28
2023-01-31T20:33:39.654Z,73.27
2023-01-31T20:36:07.264Z,73.35
2023-01-31T20:38:36.141Z,73.38
2023-01-31T20:41:05.793Z,73.42
2023-01-31T20:43:32.829Z,73.54
2023-01-31T20:46:06.260Z,73.53
2023-01-31T20:48:33.386Z,73.66
2023-01-31T20:51:00.663Z,73.74
2023-01-31T20:53:28.299Z,73.94
2023-01-31T20:56:00.271Z,73.87
2023-01-31T20:58:30.840Z,73.83
2023-01-31T21:00:59.378Z,74.14
2023-01-31T21:03:27.101Z,74.12
2023-01-31T21:05:58.812Z,74.00
2023-01-31T21:08:26.727Z,74.35
2023-01-31T21:10:56.175Z,74.34
2023-01-31T21:13:24.128Z,74.41
2023-01-31T21:15:56.154Z,74.60
2023-01-31T21:18:25.998Z,74.69
2023-01-31T21:20:53.068Z,74.68
2023-01-31T21:23:20.151Z,74.81
2023-01-31T21:25:47.179Z,74.81
2023-01-31T21:28:14.410Z,74.99
2023-01-31T21:30:41.810Z,75.09
2023-01-31T21:33:08.843Z,75.39
2023-01-31T21:35:35.843Z,75.26
2023-01-31T21:38:02.726Z,75.33
2023-01-31T21:40:29.757Z,75.30
2023-01-31T21:42:56.652Z,75.53
2023-01-31T21:45:41.656Z,75.44
2023-01-31T21:48:30.010Z,75.56
2023-01-31T21:51:02.097Z,75.54
2023-01-31T21:53:29.320Z,75.42
2023-01-31T21:56:03.063Z,75.54
2023-01-31T21:58:30.642Z,75.67
2023-01-31T22:01:09.602Z,75.72
2023-01-31T22:03:38.812Z,75.47
2023-01-31T22:06:08.564Z,75.38
2023-01-31T22:08:36.128Z,75.15
2023-01-31T22:11:11.977Z,75.00
2023-01-31T22:13:42.523Z,75.04
2023-01-31T22:16:11.725Z,74.93
2023-01-31T22:18:40.512Z,74.77
2023-01-31T22:21:18.637Z,74.45
2023-01-31T22:23:51.114Z,74.12
2023-01-31T22:26:24.603Z,73.90
2023-01-31T22:28:54.892Z,73.94
2023-01-31T22:31:22.456Z,73.99
2023-01-31T22:33:49.782Z,73.93
2023-01-31T22:36:17.946Z,73.57
2023-01-31T22:38:45.737Z,73.40
2023-01-31T22:41:15.357Z,72.85
2023-01-31T22:43:44.626Z,72.70
2023-01-31T22:46:23.393Z,72.65
2023-01-31T22:48:51.026Z,72.46
2023-01-31T22:51:21.568Z,72.28
2023-01-31T22:53:49.205Z,72.04
2023-01-31T22:56:22.574Z,72.27
2023-01-31T22:58:55.197Z,71.89
2023-01-31T23:01:24.223Z,72.07
2023-01-31T23:03:56.232Z,71.99
2023-01-31T23:06:23.363Z,72.06
2023-01-31T23:08:50.479Z,72.15
2023-01-31T23:11:18.414Z,72.29
2023-01-31T23:13:45.805Z,72.51
2023-01-31T23:16:20.387Z,72.61
2023-01-31T23:18:47.690Z,72.73
2023-01-31T23:21:17.471Z,72.77
2023-01-31T23:23:45.422Z,72.82
2023-01-31T23:26:12.998Z,72.72
2023-01-31T23:28:40.435Z,72.15
2023-01-31T23:31:07.869Z,71.58
2023-01-31T23:33:35.155Z,71.55
2023-01-31T23:36:02.457Z,71.45
2023-01-31T23:38:29.653Z,71.15
2023-01-31T23:40:56.811Z,70.87
2023-01-31T23:43:24.020Z,71.32
2023-01-31T23:45:51.096Z,70.97
2023-01-31T23:48:18.282Z,70.87
2023-01-31T23:50:45.332Z,71.14
2023-01-31T23:53:12.422Z,70.74
2023-01-31T23:55:40.001Z,71.04
2023-01-31T23:58:07.030Z,71.50
